createdAt,value
2022-10-31T00:01:19.139Z,96.55
2022-10-31T00:03:46.786Z,96.43
2022-10-31T00:06:14.029Z,97.71
2022-10-31T00:08:41.193Z,98.57
2022-10-31T00:11:11.792Z,98.08
2022-10-31T00:13:38.948Z,99.78
2022-10-31T00:16:06.413Z,99.03
2022-10-31T00:18:33.700Z,98.94
2022-10-31T00:21:02.094Z,98.92
2022-10-31T00:23:29.258Z,98.28
2022-10-31T00:26:02.655Z,98.31
2022-10-31T00:28:31.328Z,98.56
2022-10-31T00:31:07.688Z,98.52
2022-10-31T00:33:37.552Z,98.52
2022-10-31T00:36:05.907Z,97.39
2022-10-31T00:38:33.072Z,97.74
2022-10-31T00:41:00.226Z,96.93
2022-10-31T00:43:27.390Z,97.09
2022-10-31T00:45:54.554Z,96.89
2022-10-31T00:48:21.728Z,98.00
2022-10-31T00:50:48.942Z,97.42
2022-10-31T00:53:16.087Z,96.99
2022-10-31T00:55:43.358Z,96.44
2022-10-31T00:58:10.578Z,97.32
2022-10-31T01:00:37.791Z,96.75
2022-10-31T01:03:04.972Z,96.86
2022-10-31T01:05:32.510Z,96.48
2022-10-31T01:08:00.341Z,97.05
2022-10-31T01:10:27.517Z,97.54
2022-10-31T01:12:54.749Z,98.46
2022-10-31T01:15:23.091Z,99.53
2022-10-31T01:17:50.517Z,99.47
2022-10-31T01:20:18.167Z,99.42
2022-10-31T01:22:45.358Z,99.37
2022-10-31T01:25:12.614Z,99.14
2022-10-31T01:27:39.807Z,99.63
2022-10-31T01:30:07.427Z,99.84
2022-10-31T01:32:34.609Z,99.60
2022-10-31T01:35:01.770Z,98.97
2022-10-31T01:37:28.955Z,99.59
2022-10-31T01:39:56.102Z,98.29
2022-10-31T01:42:24.322Z,98.86
2022-10-31T01:45:01.775Z,98.81
2022-10-31T01:47:44.636Z,98.67
2022-10-31T01:50:26.763Z,97.70
2022-10-31T01:52:54.308Z,97.69
2022-10-31T01:55:36.478Z,98.22
2022-10-31T01:58:11.257Z,98.74
2022-10-31T02:00:38.935Z,97.91
2022-10-31T02:03:06.147Z,97.67
2022-10-31T02:05:34.099Z,98.10
2022-10-31T02:08:27.423Z,98.13
2022-10-31T02:10:55.213Z,98.54
2022-10-31T02:13:22.875Z,98.14
2022-10-31T02:15:55.645Z,97.87
2022-10-31T02:18:24.083Z,98.46
2022-10-31T02:20:59.036Z,99.30
2022-10-31T02:23:47.961Z,98.91
2022-10-31T02:26:34.852Z,98.17
2022-10-31T02:29:19.919Z,98.68
2022-10-31T02:31:59.303Z,98.28
2022-10-31T02:34:45.432Z,98.35
2022-10-31T02:37:47.520Z,98.78
2022-10-31T02:40:24.602Z,99.02
2022-10-31T02:45:52.114Z,99.04
2022-10-31T02:48:21.930Z,98.06
2022-10-31T02:51:01.988Z,98.35
2022-10-31T02:53:36.679Z,98.82
2022-10-31T02:56:11.517Z,99.00
2022-10-31T02:59:00.323Z,98.95
2022-10-31T03:01:46.017Z,99.20
2022-10-31T03:04:39.034Z,98.42
2022-10-31T03:07:31.978Z,98.91
2022-10-31T03:10:24.163Z,98.77
2022-10-31T03:13:10.664Z,98.72
2022-10-31T03:15:46.026Z,98.49
2022-10-31T03:18:33.673Z,99.03
2022-10-31T03:21:26.551Z,98.66
2022-10-31T03:23:55.089Z,99.00
2022-10-31T03:26:23.639Z,99.38
2022-10-31T03:28:54.735Z,99.86
2022-10-31T03:31:26.546Z,99.89
2022-10-31T03:33:54.032Z,100.00
2022-10-31T03:36:21.997Z,100.00
2022-10-31T03:38:49.262Z,100.00
2022-10-31T03:41:20.107Z,100.00
2022-10-31T03:43:56.738Z,100.00
2022-10-31T03:46:24.639Z,100.00
2022-10-31T03:48:51.982Z,100.00
2022-10-31T03:51:28.072Z,100.00
2022-10-31T03:54:03.598Z,100.00
2022-10-31T03:56:45.515Z,100.00
2022-10-31T03:59:20.913Z,100.00
2022-10-31T04:01:51.700Z,100.00
2022-10-31T04:04:20.551Z,100.00
2022-10-31T04:06:48.237Z,100.00
2022-10-31T04:09:15.809Z,100.00
2022-10-31T04:11:47.305Z,100.00
2022-10-31T04:14:14.476Z,100.00
2022-10-31T04:16:43.890Z,100.00
2022-10-31T04:19:11.877Z,100.00
2022-10-31T04:21:39.111Z,100.00
2022-10-31T04:24:06.538Z,100.00
2022-10-31T04:26:33.693Z,100.00
2022-10-31T04:29:00.843Z,100.00
2022-10-31T04:31:28.001Z,100.00
2022-10-31T04:33:55.256Z,100.00
2022-10-31T04:36:22.511Z,100.00
2022-10-31T04:38:49.678Z,100.00
2022-10-31T04:41:16.831Z,100.00
2022-10-31T04:43:43.990Z,100.00
2022-10-31T04:46:11.146Z,100.00
2022-10-31T04:48:38.301Z,100.00
2022-10-31T04:51:05.586Z,100.00
2022-10-31T04:53:32.762Z,100.00
2022-10-31T04:56:01.576Z,100.00
2022-10-31T04:58:29.524Z,100.00
2022-10-31T05:00:58.108Z,100.00
2022-10-31T05:03:25.347Z,100.00
2022-10-31T05:05:52.553Z,100.00
2022-10-31T05:08:19.706Z,100.00
2022-10-31T05:10:46.850Z,100.00
2022-10-31T05:13:15.676Z,100.00
2022-10-31T05:15:42.927Z,100.00
2022-10-31T05:18:10.155Z,100.00
2022-10-31T05:20:37.325Z,100.00
2022-10-31T05:23:04.487Z,100.00
2022-10-31T05:25:31.618Z,100.00
2022-10-31T05:27:59.078Z,100.00
2022-10-31T05:30:31.290Z,100.00
2022-10-31T05:32:58.673Z,100.00
2022-10-31T05:35:28.250Z,100.00
2022-10-31T05:37:55.353Z,100.00
2022-10-31T05:40:23.244Z,100.00
2022-10-31T05:42:53.193Z,100.00
2022-10-31T05:45:20.555Z,100.00
2022-10-31T05:47:55.269Z,100.00
2022-10-31T05:50:23.008Z,100.00
2022-10-31T05:53:00.639Z,100.00
2022-10-31T05:55:28.506Z,100.00
2022-10-31T05:57:56.126Z,100.00
2022-10-31T06:00:24.190Z,100.00
2022-10-31T06:02:58.123Z,100.00
2022-10-31T06:05:25.405Z,100.00
2022-10-31T06:07:52.582Z,100.00
2022-10-31T06:10:21.824Z,100.00
2022-10-31T06:12:49.005Z,100.00
2022-10-31T06:15:21.107Z,100.00
2022-10-31T06:18:00.245Z,100.00
2022-10-31T06:20:27.806Z,100.00
2022-10-31T06:22:54.997Z,100.00
2022-10-31T06:25:22.144Z,100.00
2022-10-31T06:27:49.294Z,100.00
2022-10-31T06:30:16.675Z,100.00
2022-10-31T06:32:43.912Z,100.00
2022-10-31T06:35:11.470Z,100.00
2022-10-31T06:37:39.482Z,100.00
2022-10-31T06:40:07.138Z,100.00
2022-10-31T06:42:34.294Z,100.00
2022-10-31T06:45:01.539Z,100.00
2022-10-31T06:47:28.783Z,100.00
2022-10-31T06:49:55.934Z,100.00
2022-10-31T06:52:24.321Z,100.00
2022-10-31T06:54:51.491Z,100.00
2022-10-31T06:57:18.633Z,100.00
2022-10-31T06:59:45.980Z,100.00
2022-10-31T07:02:13.254Z,100.00
2022-10-31T07:04:40.556Z,100.00
2022-10-31T07:07:07.717Z,100.00
2022-10-31T07:09:34.859Z,100.00
2022-10-31T07:12:02.020Z,100.00
2022-10-31T07:14:29.159Z,100.00
2022-10-31T07:16:56.371Z,100.00
2022-10-31T07:19:23.511Z,100.00
2022-10-31T07:21:50.662Z,100.00
2022-10-31T07:24:17.804Z,100.00
2022-10-31T07:26:46.909Z,100.00
2022-10-31T07:29:14.112Z,100.00
2022-10-31T07:31:41.277Z,100.00
2022-10-31T07:34:08.434Z,100.00
2022-10-31T07:36:35.581Z,100.00
2022-10-31T07:39:03.252Z,100.00
2022-10-31T07:41:30.517Z,100.00
2022-10-31T07:43:57.679Z,100.00
2022-10-31T07:46:24.914Z,100.00
2022-10-31T07:48:52.059Z,100.00
2022-10-31T07:51:19.218Z,100.00
2022-10-31T07:53:46.674Z,99.88
2022-10-31T07:56:13.912Z,99.48
2022-10-31T07:58:41.055Z,98.92
2022-10-31T08:01:08.400Z,98.65
2022-10-31T08:03:35.947Z,98.24
2022-10-31T08:06:03.266Z,98.32
2022-10-31T08:08:32.350Z,97.98
2022-10-31T08:11:03.169Z,98.18
2022-10-31T08:13:30.357Z,98.04
2022-10-31T08:16:04.330Z,97.87
2022-10-31T08:18:31.777Z,97.42
2022-10-31T08:20:59.191Z,97.42
2022-10-31T08:23:26.330Z,97.34
2022-10-31T08:25:53.509Z,96.77
2022-10-31T08:28:20.650Z,97.25
2022-10-31T08:30:48.451Z,96.80
2022-10-31T08:33:17.911Z,96.91
2022-10-31T08:35:45.642Z,96.95
2022-10-31T08:38:13.895Z,96.79
2022-10-31T08:40:41.120Z,96.91
2022-10-31T08:43:15.824Z,97.61
2022-10-31T08:45:44.424Z,97.16
2022-10-31T08:48:14.120Z,97.21
2022-10-31T08:50:42.031Z,96.56
2022-10-31T08:53:17.513Z,95.80
2022-10-31T08:55:45.728Z,96.03
2022-10-31T08:58:18.019Z,95.57
2022-10-31T09:00:46.319Z,95.75
2022-10-31T09:03:24.265Z,96.40
2022-10-31T09:05:51.916Z,95.95
2022-10-31T09:08:19.195Z,95.78
2022-10-31T09:10:46.413Z,95.38
2022-10-31T09:13:16.565Z,95.07
2022-10-31T09:15:45.098Z,95.65
2022-10-31T09:18:13.110Z,94.65
2022-10-31T09:20:41.373Z,93.85
2022-10-31T09:23:17.131Z,93.46
2022-10-31T09:25:49.332Z,93.69
2022-10-31T09:28:20.004Z,92.81
2022-10-31T09:30:51.839Z,92.34
2022-10-31T09:33:19.478Z,92.46
2022-10-31T09:35:46.717Z,92.55
2022-10-31T09:38:16.023Z,91.82
2022-10-31T09:40:48.591Z,92.30
2022-10-31T09:43:54.944Z,92.43
2022-10-31T09:46:57.796Z,93.91
2022-10-31T09:49:38.871Z,93.09
2022-10-31T09:52:20.781Z,91.69
2022-10-31T09:55:21.978Z,91.54
2022-10-31T09:57:49.645Z,91.60
2022-10-31T10:00:19.890Z,90.35
2022-10-31T10:02:58.179Z,91.72
2022-10-31T10:05:42.910Z,91.61
2022-10-31T10:08:20.016Z,89.10
2022-10-31T10:10:59.259Z,88.39
2022-10-31T10:13:55.208Z,89.21
2022-10-31T10:16:45.411Z,90.53
2022-10-31T10:19:40.044Z,88.08
2022-10-31T10:22:43.588Z,86.70
2022-10-31T10:25:17.296Z,86.47
2022-10-31T10:28:02.213Z,86.18
2022-10-31T10:30:41.409Z,86.25
2022-10-31T10:33:51.912Z,86.45
2022-10-31T10:36:29.205Z,87.58
2022-10-31T10:39:01.823Z,86.17
2022-10-31T10:41:34.500Z,86.61
2022-10-31T10:44:01.893Z,86.40
2022-10-31T10:47:14.671Z,85.20
2022-10-31T10:49:52.311Z,84.61
2022-10-31T10:52:42.195Z,84.49
2022-10-31T10:55:18.527Z,84.52
2022-10-31T10:58:05.240Z,87.03
2022-10-31T11:00:37.237Z,84.99
2022-10-31T11:03:05.914Z,85.96
2022-10-31T11:05:52.181Z,86.37
2022-10-31T11:08:27.698Z,86.14
2022-10-31T11:11:03.646Z,84.81
2022-10-31T11:13:31.989Z,85.63
2022-10-31T11:16:05.396Z,84.51
2022-10-31T11:18:34.789Z,85.10
2022-10-31T11:21:05.136Z,84.06
2022-10-31T11:23:33.162Z,84.56
2022-10-31T11:26:02.831Z,83.43
2022-10-31T11:28:31.481Z,83.83
2022-10-31T11:31:00.594Z,83.50
2022-10-31T11:33:29.399Z,85.65
2022-10-31T11:35:58.259Z,83.69
2022-10-31T11:38:32.816Z,82.91
2022-10-31T11:41:16.477Z,83.38
2022-10-31T11:43:50.682Z,83.31
2022-10-31T11:46:22.637Z,82.44
2022-10-31T11:48:54.559Z,82.31
2022-10-31T11:51:30.098Z,82.62
2022-10-31T11:54:02.721Z,85.65
2022-10-31T11:56:41.514Z,83.91
2022-10-31T11:59:28.422Z,83.92
2022-10-31T12:01:57.345Z,83.51
2022-10-31T12:05:07.890Z,83.52
2022-10-31T12:07:35.064Z,83.84
2022-10-31T12:10:02.257Z,84.18
2022-10-31T12:13:02.863Z,84.63
2022-10-31T12:15:39.245Z,84.93
2022-10-31T12:18:43.956Z,85.14
2022-10-31T12:21:19.912Z,86.04
2022-10-31T12:24:05.843Z,86.01
2022-10-31T12:26:55.584Z,86.81
2022-10-31T12:29:34.529Z,87.00
2022-10-31T12:32:30.232Z,87.45
2022-10-31T12:35:20.719Z,87.61
2022-10-31T12:38:06.782Z,88.19
2022-10-31T12:40:36.998Z,88.18
2022-10-31T12:43:46.396Z,88.34
2022-10-31T12:46:46.989Z,88.20
2022-10-31T12:49:39.870Z,88.39
2022-10-31T12:52:32.322Z,88.89
2022-10-31T12:55:36.987Z,89.23
2022-10-31T12:58:11.018Z,89.35
2022-10-31T13:00:41.152Z,89.80
2022-10-31T13:03:34.559Z,90.39
2022-10-31T13:06:07.265Z,90.76
2022-10-31T13:08:43.422Z,91.30
2022-10-31T13:11:22.046Z,91.68
2022-10-31T13:14:01.214Z,91.69
2022-10-31T13:16:32.251Z,91.58
2022-10-31T13:19:23.617Z,92.03
2022-10-31T13:22:08.693Z,92.00
2022-10-31T13:24:56.798Z,92.29
2022-10-31T13:27:27.983Z,92.54
2022-10-31T13:29:58.051Z,92.33
2022-10-31T13:32:26.660Z,92.00
2022-10-31T13:34:57.059Z,92.10
2022-10-31T13:37:40.206Z,91.79
2022-10-31T13:40:10.504Z,91.46
2022-10-31T13:43:01.426Z,91.77
2022-10-31T13:45:29.394Z,91.89
2022-10-31T13:48:16.490Z,91.87
2022-10-31T13:50:44.853Z,91.77
2022-10-31T13:53:21.484Z,91.89
2022-10-31T13:55:51.045Z,91.52
2022-10-31T13:58:24.475Z,91.73
2022-10-31T14:01:15.458Z,91.81
2022-10-31T14:06:46.334Z,92.43
2022-10-31T14:09:33.715Z,93.07
2022-10-31T14:12:11.660Z,93.37
2022-10-31T14:14:46.826Z,93.39
2022-10-31T14:17:20.658Z,93.29
2022-10-31T14:20:12.591Z,93.08
2022-10-31T14:22:42.892Z,93.34
2022-10-31T14:25:45.693Z,93.67
2022-10-31T14:28:23.159Z,94.00
2022-10-31T14:30:58.775Z,94.33
2022-10-31T14:33:28.898Z,93.91
2022-10-31T14:36:07.954Z,94.43
2022-10-31T14:38:56.833Z,94.78
2022-10-31T14:41:48.644Z,94.59
2022-10-31T14:44:37.469Z,94.01
2022-10-31T14:47:12.097Z,94.34
2022-10-31T14:50:07.814Z,94.90
2022-10-31T14:52:37.647Z,94.46
2022-10-31T14:55:07.800Z,94.35
2022-10-31T14:57:37.347Z,93.63
2022-10-31T15:00:16.738Z,93.64
2022-10-31T15:03:07.090Z,93.48
2022-10-31T15:05:36.542Z,94.01
2022-10-31T15:08:03.784Z,94.04
2022-10-31T15:10:33.286Z,93.52
2022-10-31T15:13:20.164Z,93.41
2022-10-31T15:15:51.994Z,93.79
2022-10-31T15:18:26.029Z,93.71
2022-10-31T15:20:54.544Z,93.83
2022-10-31T15:23:24.769Z,94.04
2022-10-31T15:25:51.935Z,94.94
2022-10-31T15:28:24.628Z,95.07
2022-10-31T15:30:56.842Z,95.28
2022-10-31T15:33:32.425Z,95.09
2022-10-31T15:36:05.042Z,95.15
2022-10-31T15:38:32.702Z,95.18
2022-10-31T15:41:19.643Z,95.65
2022-10-31T15:43:47.511Z,95.98
2022-10-31T15:46:14.768Z,96.14
2022-10-31T15:48:49.070Z,96.72
2022-10-31T15:51:16.345Z,97.16
2022-10-31T15:53:49.507Z,97.04
2022-10-31T15:56:25.574Z,98.00
2022-10-31T15:58:54.504Z,98.12
2022-10-31T16:01:23.340Z,98.39
2022-10-31T16:04:05.938Z,97.92
2022-10-31T16:06:35.164Z,97.86
2022-10-31T16:09:02.490Z,98.14
2022-10-31T16:11:37.301Z,98.10
2022-10-31T16:14:12.292Z,98.50
2022-10-31T16:16:52.818Z,98.20
2022-10-31T16:19:34.088Z,97.66
2022-10-31T16:22:13.294Z,97.79
2022-10-31T16:24:51.075Z,98.59
2022-10-31T16:27:27.919Z,98.97
2022-10-31T16:29:58.465Z,99.75
2022-10-31T16:32:59.503Z,100.00
2022-10-31T16:35:35.235Z,100.00
2022-10-31T16:38:02.565Z,100.00
2022-10-31T16:40:30.533Z,100.00
2022-10-31T16:43:02.201Z,100.00
2022-10-31T16:45:31.551Z,100.00
2022-10-31T16:48:07.126Z,100.00
2022-10-31T16:50:34.371Z,100.00
2022-10-31T16:53:13.501Z,100.00
2022-10-31T16:55:47.701Z,100.00
2022-10-31T16:58:27.131Z,100.00
2022-10-31T17:00:54.601Z,100.00
2022-10-31T17:03:22.030Z,100.00
2022-10-31T17:05:49.387Z,100.00
2022-10-31T17:08:16.583Z,100.00
2022-10-31T17:10:44.565Z,100.00
2022-10-31T17:13:16.889Z,100.00
2022-10-31T17:15:48.885Z,100.00
2022-10-31T17:18:16.928Z,100.00
2022-10-31T17:20:44.461Z,100.00
2022-10-31T17:23:13.426Z,100.00
2022-10-31T17:25:40.919Z,100.00
2022-10-31T17:28:09.692Z,100.00
2022-10-31T17:30:37.356Z,100.00
2022-10-31T17:33:04.639Z,100.00
2022-10-31T17:35:31.927Z,100.00
2022-10-31T17:37:59.144Z,100.00
2022-10-31T17:40:26.341Z,100.00
2022-10-31T17:42:55.028Z,100.00
2022-10-31T17:45:22.998Z,100.00
2022-10-31T17:47:51.875Z,100.00
2022-10-31T17:50:21.073Z,100.00
2022-10-31T17:52:49.052Z,100.00
2022-10-31T17:55:16.899Z,100.00
2022-10-31T17:57:44.619Z,100.00
2022-10-31T18:00:15.183Z,100.00
2022-10-31T18:02:42.467Z,100.00
2022-10-31T18:05:10.009Z,100.00
2022-10-31T18:07:37.173Z,100.00
2022-10-31T18:10:05.453Z,100.00
2022-10-31T18:12:32.610Z,100.00
2022-10-31T18:15:00.289Z,100.00
2022-10-31T18:17:27.435Z,100.00
2022-10-31T18:19:54.595Z,100.00
2022-10-31T18:22:21.740Z,100.00
2022-10-31T18:24:48.902Z,100.00
2022-10-31T18:27:16.209Z,100.00
2022-10-31T18:29:43.396Z,100.00
2022-10-31T18:32:10.551Z,100.00
2022-10-31T18:34:37.906Z,100.00
2022-10-31T18:37:05.125Z,100.00
2022-10-31T18:39:32.274Z,100.00
2022-10-31T18:41:59.458Z,100.00
2022-10-31T18:44:27.799Z,100.00
2022-10-31T18:46:55.100Z,100.00
2022-10-31T18:49:23.873Z,100.00
2022-10-31T18:51:51.610Z,100.00
2022-10-31T18:54:18.836Z,100.00
2022-10-31T18:56:46.016Z,100.00
2022-10-31T18:59:13.435Z,100.00
2022-10-31T19:01:41.040Z,100.00
2022-10-31T19:04:09.745Z,100.00
2022-10-31T19:06:36.890Z,100.00
2022-10-31T19:09:09.497Z,100.00
2022-10-31T19:11:38.530Z,100.00
2022-10-31T19:14:08.439Z,100.00
2022-10-31T19:16:35.868Z,100.00
2022-10-31T19:19:03.297Z,100.00
2022-10-31T19:21:32.275Z,100.00
2022-10-31T19:24:00.548Z,100.00
2022-10-31T19:26:28.291Z,100.00
2022-10-31T19:28:56.461Z,100.00
2022-10-31T19:31:23.807Z,100.00
2022-10-31T19:33:51.010Z,100.00
2022-10-31T19:36:19.542Z,100.00
2022-10-31T19:38:48.690Z,100.00
2022-10-31T19:41:26.077Z,100.00
2022-10-31T19:43:53.995Z,100.00
2022-10-31T19:46:33.831Z,100.00
2022-10-31T19:49:10.736Z,100.00
2022-10-31T19:51:39.680Z,100.00
2022-10-31T19:54:07.068Z,100.00
2022-10-31T19:56:34.648Z,100.00
2022-10-31T19:59:03.896Z,100.00
2022-10-31T20:01:31.152Z,100.00
2022-10-31T20:03:58.564Z,100.00
2022-10-31T20:06:27.913Z,100.00
2022-10-31T20:08:58.262Z,100.00
2022-10-31T20:11:26.830Z,100.00
2022-10-31T20:13:57.923Z,100.00
2022-10-31T20:16:26.552Z,100.00
2022-10-31T20:18:53.988Z,100.00
2022-10-31T20:21:24.670Z,100.00
2022-10-31T20:23:56.247Z,100.00
2022-10-31T20:26:23.489Z,100.00
2022-10-31T20:28:50.641Z,100.00
2022-10-31T20:31:23.183Z,100.00
2022-10-31T20:33:50.804Z,100.00
2022-10-31T20:36:22.837Z,100.00
2022-10-31T20:38:51.242Z,100.00
2022-10-31T20:41:18.478Z,100.00
2022-10-31T20:43:45.838Z,100.00
2022-10-31T20:46:18.171Z,100.00
2022-10-31T20:48:45.644Z,100.00
2022-10-31T20:53:43.528Z,100.00
2022-10-31T20:56:12.726Z,100.00
2022-10-31T20:58:40.039Z,100.00
2022-10-31T21:01:16.950Z,100.00
2022-10-31T21:03:44.768Z,100.00
2022-10-31T21:06:12.699Z,100.00
2022-10-31T21:08:40.316Z,100.00
2022-10-31T21:11:10.158Z,100.00
2022-10-31T21:13:42.570Z,100.00
2022-10-31T21:16:24.839Z,100.00
2022-10-31T21:18:52.894Z,100.00
2022-10-31T21:21:28.864Z,100.00
2022-10-31T21:24:01.825Z,100.00
2022-10-31T21:26:30.980Z,100.00
2022-10-31T21:28:59.192Z,100.00
2022-10-31T21:31:28.204Z,100.00
2022-10-31T21:33:55.946Z,100.00
2022-10-31T21:36:23.233Z,100.00
2022-10-31T21:38:54.871Z,100.00
2022-10-31T21:41:23.308Z,100.00
2022-10-31T21:43:56.233Z,100.00
2022-10-31T21:46:26.208Z,100.00
2022-10-31T21:48:53.873Z,100.00
2022-10-31T21:51:24.993Z,100.00
2022-10-31T21:54:10.959Z,100.00
2022-10-31T21:56:38.674Z,100.00
2022-10-31T21:59:06.093Z,100.00
2022-10-31T22:01:33.927Z,100.00
2022-10-31T22:04:01.574Z,100.00
2022-10-31T22:06:32.002Z,100.00
2022-10-31T22:09:00.403Z,100.00
2022-10-31T22:11:28.398Z,100.00
2022-10-31T22:13:55.939Z,100.00
2022-10-31T22:16:24.190Z,100.00
2022-10-31T22:18:56.239Z,100.00
2022-10-31T22:21:25.618Z,100.00
2022-10-31T22:23:54.777Z,100.00
2022-10-31T22:26:21.987Z,100.00
2022-10-31T22:28:53.287Z,100.00
2022-10-31T22:31:21.708Z,100.00
2022-10-31T22:33:49.259Z,100.00
2022-10-31T22:36:19.004Z,100.00
2022-10-31T22:38:46.448Z,100.00
2022-10-31T22:41:16.343Z,100.00
2022-10-31T22:43:43.589Z,100.00
2022-10-31T22:46:19.393Z,100.00
2022-10-31T22:48:52.517Z,100.00
2022-10-31T22:51:25.155Z,100.00
2022-10-31T22:53:52.906Z,100.00
2022-10-31T22:56:22.196Z,100.00
2022-10-31T22:58:49.373Z,100.00
2022-10-31T23:01:19.009Z,100.00
2022-10-31T23:03:46.845Z,100.00
2022-10-31T23:06:19.375Z,100.00
2022-10-31T23:08:47.101Z,100.00
2022-10-31T23:11:23.766Z,100.00
2022-10-31T23:14:11.674Z,100.00
2022-10-31T23:16:50.750Z,100.00
2022-10-31T23:19:27.586Z,100.00
2022-10-31T23:22:01.101Z,100.00
2022-10-31T23:24:38.075Z,100.00
2022-10-31T23:27:28.925Z,100.00
2022-10-31T23:29:57.674Z,100.00
2022-10-31T23:32:35.247Z,100.00
2022-10-31T23:35:07.664Z,100.00
2022-10-31T23:37:37.118Z,100.00
2022-10-31T23:40:05.217Z,100.00
2022-10-31T23:42:32.392Z,100.00
2022-10-31T23:44:59.532Z,100.00
2022-10-31T23:47:26.806Z,100.00
2022-10-31T23:49:53.956Z,100.00
2022-10-31T23:52:21.133Z,100.00
2022-10-31T23:54:48.348Z,100.00
2022-10-31T23:57:16.228Z,100.00
2022-10-31T23:59:43.469Z,100.00
